createdAt,value
2023-05-25T00:02:15.777Z,6.78
2023-05-25T00:04:48.833Z,7.45
2023-05-25T00:07:17.824Z,6.45
2023-05-25T00:09:47.031Z,9.00
2023-05-25T00:12:18.160Z,6.18
2023-05-25T00:14:47.470Z,8.07
2023-05-25T00:17:20.428Z,6.53
2023-05-25T00:19:49.060Z,7.65
2023-05-25T00:22:20.880Z,6.05
2023-05-25T00:24:50.423Z,7.28
2023-05-25T00:27:21.946Z,6.68
2023-05-25T00:29:50.526Z,7.30
2023-05-25T00:32:30.726Z,6.65
2023-05-25T00:35:00.782Z,4.47
2023-05-25T00:37:31.004Z,6.13
2023-05-25T00:39:59.533Z,5.07
2023-05-25T00:42:28.825Z,5.57
2023-05-25T00:44:59.941Z,5.30
2023-05-25T00:47:28.780Z,6.18
2023-05-25T00:49:58.282Z,7.40
2023-05-25T00:52:27.464Z,5.38
2023-05-25T00:55:01.507Z,6.57
2023-05-25T00:57:41.507Z,5.60
2023-05-25T01:00:13.658Z,5.05
2023-05-25T01:02:44.168Z,6.78
2023-05-25T01:05:14.787Z,5.63
2023-05-25T01:07:45.777Z,5.10
2023-05-25T01:10:16.200Z,4.20
2023-05-25T01:12:51.840Z,4.68
2023-05-25T01:15:24.037Z,4.80
2023-05-25T01:17:54.479Z,4.95
2023-05-25T01:20:25.700Z,3.60
2023-05-25T01:23:01.050Z,4.15
2023-05-25T01:25:44.559Z,4.63
2023-05-25T01:28:22.202Z,4.43
2023-05-25T01:30:56.099Z,3.40
2023-05-25T01:33:25.532Z,4.05
2023-05-25T01:35:54.110Z,3.65
2023-05-25T01:38:23.542Z,3.58
2023-05-25T01:40:54.951Z,4.68
2023-05-25T01:43:27.133Z,2.97
2023-05-25T01:46:03.219Z,3.97
2023-05-25T01:48:51.969Z,5.82
2023-05-25T01:51:47.706Z,2.97
2023-05-25T01:54:23.360Z,3.53
2023-05-25T01:56:53.572Z,5.55
2023-05-25T01:59:27.644Z,4.90
2023-05-25T02:02:01.271Z,4.63
2023-05-25T02:04:30.200Z,3.25
2023-05-25T02:07:01.750Z,5.18
2023-05-25T02:09:33.606Z,5.55
2023-05-25T02:12:08.534Z,3.28
2023-05-25T02:14:38.754Z,4.18
2023-05-25T02:17:10.729Z,3.47
2023-05-25T02:19:42.389Z,2.70
2023-05-25T02:22:13.861Z,3.22
2023-05-25T02:24:43.347Z,3.63
2023-05-25T02:27:13.074Z,3.83
2023-05-25T02:29:44.809Z,3.88
2023-05-25T02:32:15.391Z,3.63
2023-05-25T02:34:44.004Z,2.83
2023-05-25T02:37:12.748Z,3.45
2023-05-25T02:39:41.486Z,3.03
2023-05-25T02:42:10.005Z,2.63
2023-05-25T02:44:40.241Z,3.95
2023-05-25T02:47:08.980Z,3.63
2023-05-25T02:49:37.589Z,3.05
2023-05-25T02:52:08.986Z,2.28
2023-05-25T02:54:37.522Z,2.65
2023-05-25T02:57:08.806Z,3.50
2023-05-25T02:59:42.977Z,2.45
2023-05-25T03:02:16.866Z,3.15
2023-05-25T03:08:06.392Z,2.78
2023-05-25T03:10:34.849Z,3.65
2023-05-25T03:13:03.635Z,4.22
2023-05-25T03:15:39.806Z,3.85
2023-05-25T03:20:53.273Z,3.22
2023-05-25T03:23:27.887Z,3.88
2023-05-25T03:26:01.751Z,4.07
2023-05-25T03:28:30.068Z,3.70
2023-05-25T03:30:58.583Z,3.85
2023-05-25T03:33:33.576Z,4.13
2023-05-25T03:36:02.379Z,3.20
2023-05-25T03:38:38.184Z,3.17
2023-05-25T03:41:09.515Z,2.53
2023-05-25T03:43:38.737Z,3.08
2023-05-25T03:46:16.036Z,2.65
2023-05-25T03:48:45.989Z,5.23
2023-05-25T03:51:18.940Z,2.47
2023-05-25T03:53:52.400Z,2.53
2023-05-25T03:56:21.576Z,1.80
2023-05-25T03:58:52.589Z,3.00
2023-05-25T04:01:26.157Z,2.80
2023-05-25T04:04:05.780Z,6.43
2023-05-25T04:06:37.566Z,2.88
2023-05-25T04:09:06.778Z,5.40
2023-05-25T04:11:41.656Z,3.95
2023-05-25T04:14:14.441Z,4.57
2023-05-25T04:16:46.052Z,4.10
2023-05-25T04:19:16.421Z,2.90
2023-05-25T04:21:45.727Z,3.78
2023-05-25T04:24:20.031Z,4.82
2023-05-25T04:26:57.339Z,5.05
2023-05-25T04:29:26.792Z,4.85
2023-05-25T04:32:25.654Z,5.22
2023-05-25T04:35:15.718Z,4.30
2023-05-25T04:37:52.048Z,4.57
2023-05-25T04:40:24.926Z,5.03
2023-05-25T04:42:57.351Z,4.30
2023-05-25T04:45:31.493Z,5.68
2023-05-25T04:48:01.867Z,5.53
2023-05-25T04:50:31.007Z,5.82
2023-05-25T04:53:00.838Z,5.47
2023-05-25T04:55:31.478Z,5.13
2023-05-25T04:58:01.630Z,6.00
2023-05-25T05:00:31.703Z,11.00
2023-05-25T05:03:01.881Z,6.25
2023-05-25T05:05:31.663Z,7.80
2023-05-25T05:08:06.363Z,8.07
2023-05-25T05:10:37.651Z,9.07
2023-05-25T05:13:09.529Z,10.70
2023-05-25T05:15:38.260Z,9.80
2023-05-25T05:18:08.922Z,13.80
2023-05-25T05:20:40.584Z,9.40
2023-05-25T05:23:13.927Z,10.13
2023-05-25T05:25:46.612Z,13.60
2023-05-25T05:28:16.491Z,10.07
2023-05-25T05:30:47.070Z,14.40
2023-05-25T05:33:18.868Z,10.73
2023-05-25T05:35:48.886Z,9.38
2023-05-25T05:38:25.466Z,9.23
2023-05-25T05:40:54.873Z,12.95
2023-05-25T05:43:27.807Z,10.77
2023-05-25T05:45:57.621Z,8.65
2023-05-25T05:48:27.793Z,7.38
2023-05-25T05:51:00.438Z,6.38
2023-05-25T05:53:28.912Z,7.72
2023-05-25T05:56:02.443Z,10.38
2023-05-25T05:58:33.798Z,7.57
2023-05-25T06:01:07.938Z,8.80
2023-05-25T06:03:39.912Z,8.73
2023-05-25T06:06:20.273Z,9.25
2023-05-25T06:08:53.805Z,7.50
2023-05-25T06:11:50.385Z,8.48
2023-05-25T06:14:22.453Z,7.65
2023-05-25T06:16:51.526Z,7.43
2023-05-25T06:19:19.860Z,6.47
2023-05-25T06:21:51.934Z,7.25
2023-05-25T06:24:22.843Z,9.40
2023-05-25T06:26:51.530Z,7.80
2023-05-25T06:29:24.237Z,7.85
2023-05-25T06:31:52.853Z,7.00
2023-05-25T06:34:21.276Z,5.82
2023-05-25T06:36:49.346Z,10.60
2023-05-25T06:39:17.800Z,12.65
2023-05-25T06:41:45.678Z,10.23
2023-05-25T06:44:17.383Z,8.40
2023-05-25T06:46:48.741Z,10.02
2023-05-25T06:49:17.419Z,9.07
2023-05-25T06:51:46.350Z,11.10
2023-05-25T06:54:15.477Z,9.82
2023-05-25T06:56:43.195Z,10.50
2023-05-25T06:59:11.072Z,8.93
2023-05-25T07:01:39.270Z,8.63
2023-05-25T07:04:07.217Z,10.88
2023-05-25T07:06:35.029Z,8.15
2023-05-25T07:09:04.041Z,7.60
2023-05-25T07:11:31.844Z,7.00
2023-05-25T07:13:59.620Z,7.45
2023-05-25T07:16:27.626Z,7.18
2023-05-25T07:18:56.436Z,7.45
2023-05-25T07:21:25.594Z,10.80
2023-05-25T07:23:53.754Z,6.95
2023-05-25T07:26:23.228Z,8.80
2023-05-25T07:28:50.950Z,7.50
2023-05-25T07:31:18.977Z,8.23
2023-05-25T07:33:48.187Z,9.40
2023-05-25T07:36:15.988Z,8.77
2023-05-25T07:38:45.486Z,8.32
2023-05-25T07:41:13.837Z,6.50
2023-05-25T07:43:41.648Z,8.23
2023-05-25T07:46:09.475Z,10.50
2023-05-25T07:48:37.891Z,9.52
2023-05-25T07:51:05.942Z,11.15
2023-05-25T07:53:34.881Z,10.90
2023-05-25T07:56:02.960Z,9.20
2023-05-25T07:58:30.797Z,8.27
2023-05-25T08:00:58.775Z,7.60
2023-05-25T08:03:39.956Z,7.63
2023-05-25T08:06:14.919Z,7.10
2023-05-25T08:08:45.170Z,6.43
2023-05-25T08:11:13.341Z,5.85
2023-05-25T08:13:41.349Z,6.68
2023-05-25T08:16:09.540Z,8.95
2023-05-25T08:18:38.485Z,7.45
2023-05-25T08:21:06.256Z,7.60
2023-05-25T08:23:34.128Z,6.50
2023-05-25T08:26:05.914Z,8.25
2023-05-25T08:28:39.919Z,6.93
2023-05-25T08:31:07.977Z,6.32
2023-05-25T08:33:36.018Z,10.88
2023-05-25T08:36:04.190Z,9.80
2023-05-25T08:38:31.935Z,9.60
2023-05-25T08:41:06.240Z,10.27
2023-05-25T08:43:34.429Z,10.10
2023-05-25T08:46:06.476Z,7.78
2023-05-25T08:48:41.986Z,8.85
2023-05-25T08:51:13.544Z,7.13
2023-05-25T08:53:43.710Z,7.30
2023-05-25T08:56:36.903Z,6.88
2023-05-25T08:59:36.040Z,6.75
2023-05-25T09:02:23.039Z,6.57
2023-05-25T09:04:51.145Z,5.95
2023-05-25T09:07:19.452Z,6.70
2023-05-25T09:09:48.306Z,5.68
2023-05-25T09:12:17.386Z,7.25
2023-05-25T09:14:48.593Z,6.43
2023-05-25T09:17:17.518Z,7.22
2023-05-25T09:19:47.091Z,7.18
2023-05-25T09:22:16.975Z,7.03
2023-05-25T09:24:45.721Z,4.68
2023-05-25T09:27:18.165Z,6.97
2023-05-25T09:29:51.003Z,11.82
2023-05-25T09:32:19.840Z,6.20
2023-05-25T09:34:48.286Z,7.32
2023-05-25T09:37:19.353Z,8.50
2023-05-25T09:39:48.142Z,9.20
2023-05-25T09:42:16.594Z,6.50
2023-05-25T09:44:45.078Z,10.35
2023-05-25T09:47:15.421Z,7.55
2023-05-25T09:49:44.711Z,7.18
2023-05-25T09:52:12.743Z,4.65
2023-05-25T09:54:43.897Z,5.63
2023-05-25T09:57:12.139Z,7.25
2023-05-25T09:59:39.930Z,6.15
2023-05-25T10:02:09.073Z,14.25
2023-05-25T10:04:37.333Z,16.20
2023-05-25T10:07:05.650Z,15.80
2023-05-25T10:09:40.052Z,17.95
2023-05-25T10:12:09.380Z,15.35
2023-05-25T10:14:38.715Z,10.80
2023-05-25T10:17:10.004Z,8.25
2023-05-25T10:19:42.098Z,9.20
2023-05-25T10:22:44.742Z,7.43
2023-05-25T10:25:29.376Z,7.35
2023-05-25T10:28:17.491Z,8.65
2023-05-25T10:30:46.596Z,7.75
2023-05-25T10:33:14.645Z,6.57
2023-05-25T10:36:01.557Z,12.65
2023-05-25T10:38:33.677Z,7.40
2023-05-25T10:41:04.894Z,8.80
2023-05-25T10:43:32.987Z,9.25
2023-05-25T10:46:02.261Z,12.13
2023-05-25T10:48:37.849Z,11.00
2023-05-25T10:51:08.815Z,9.90
2023-05-25T10:53:38.062Z,9.98
2023-05-25T10:56:08.932Z,14.70
2023-05-25T10:58:43.667Z,29.40
2023-05-25T11:01:13.267Z,32.97
2023-05-25T11:03:45.060Z,23.52
2023-05-25T11:06:18.010Z,18.40
2023-05-25T11:08:56.710Z,15.38
2023-05-25T11:11:45.653Z,15.43
2023-05-25T11:14:34.181Z,12.25
2023-05-25T11:17:15.099Z,14.23
2023-05-25T11:19:52.401Z,12.15
2023-05-25T11:24:51.219Z,14.50
2023-05-25T11:27:24.800Z,14.30
2023-05-25T11:29:56.932Z,9.98
2023-05-25T11:32:27.027Z,13.55
2023-05-25T11:34:57.740Z,12.52
2023-05-25T11:37:32.085Z,12.65
2023-05-25T11:40:08.316Z,9.73
2023-05-25T11:42:38.873Z,11.80
2023-05-25T11:45:11.901Z,17.85
2023-05-25T11:47:44.258Z,25.90
2023-05-25T11:50:19.095Z,13.25
2023-05-25T11:52:48.942Z,12.60
2023-05-25T11:55:20.638Z,9.98
2023-05-25T11:57:56.904Z,12.10
2023-05-25T12:00:30.449Z,13.65
2023-05-25T12:03:00.167Z,19.02
2023-05-25T12:05:40.958Z,17.17
2023-05-25T12:08:18.228Z,13.73
2023-05-25T12:10:55.173Z,10.07
2023-05-25T12:13:37.029Z,8.15
2023-05-25T12:16:20.756Z,11.43
2023-05-25T12:18:49.717Z,10.50
2023-05-25T12:25:42.677Z,9.02
2023-05-25T12:29:14.872Z,10.38
2023-05-25T12:32:19.748Z,9.18
2023-05-25T12:35:29.447Z,9.02
2023-05-25T12:38:33.545Z,7.95
2023-05-25T12:41:09.386Z,11.70
2023-05-25T12:44:16.498Z,11.52
2023-05-25T12:46:48.839Z,8.57
2023-05-25T12:49:28.396Z,8.52
2023-05-25T12:52:48.420Z,8.45
2023-05-25T12:55:30.492Z,9.20
2023-05-25T12:58:55.950Z,9.55
2023-05-25T13:01:41.229Z,10.13
2023-05-25T13:04:21.052Z,6.07
2023-05-25T13:07:03.602Z,9.55
2023-05-25T13:09:42.055Z,7.88
2023-05-25T13:12:20.680Z,7.97
2023-05-25T13:15:00.779Z,10.23
2023-05-25T13:18:07.488Z,7.32
2023-05-25T13:20:57.508Z,8.15
2023-05-25T13:23:45.950Z,7.90
2023-05-25T13:26:38.296Z,7.20
2023-05-25T13:30:05.961Z,7.10
2023-05-25T13:33:22.153Z,6.90
2023-05-25T13:36:17.404Z,6.45
2023-05-25T13:39:20.138Z,9.43
2023-05-25T13:42:05.580Z,12.50
2023-05-25T13:44:34.792Z,17.27
2023-05-25T13:47:03.455Z,15.85
2023-05-25T13:49:39.061Z,16.83
2023-05-25T13:52:15.402Z,14.93
2023-05-25T13:55:09.644Z,26.52
2023-05-25T13:58:15.389Z,42.10
2023-05-25T14:01:20.850Z,32.83
2023-05-25T14:10:03.927Z,14.40
2023-05-25T14:12:34.959Z,9.82
2023-05-25T14:15:12.667Z,7.68
2023-05-25T14:17:44.971Z,6.65
2023-05-25T14:20:16.509Z,6.35
2023-05-25T14:22:46.116Z,6.50
2023-05-25T14:25:17.579Z,7.63
2023-05-25T14:27:47.147Z,4.78
2023-05-25T14:30:20.497Z,6.05
2023-05-25T14:32:50.257Z,5.47
2023-05-25T14:35:22.036Z,4.68
2023-05-25T14:37:52.043Z,5.38
2023-05-25T14:40:23.770Z,5.95
2023-05-25T14:42:55.973Z,4.43
2023-05-25T14:45:25.136Z,6.00
2023-05-25T14:48:00.924Z,6.93
2023-05-25T14:50:40.923Z,6.15
2023-05-25T14:53:09.483Z,4.55
2023-05-25T14:55:42.435Z,4.88
2023-05-25T14:58:11.659Z,6.10
2023-05-25T15:00:40.114Z,8.15
2023-05-25T15:03:08.716Z,4.93
2023-05-25T15:05:41.566Z,5.07
2023-05-25T15:08:10.474Z,6.03
2023-05-25T15:10:41.672Z,5.50
2023-05-25T15:13:12.000Z,5.18
2023-05-25T15:15:44.816Z,5.32
2023-05-25T15:18:16.648Z,5.80
2023-05-25T15:20:46.257Z,5.43
2023-05-25T15:23:17.539Z,7.38
2023-05-25T15:25:47.422Z,6.30
2023-05-25T15:28:18.824Z,6.85
2023-05-25T15:30:54.685Z,11.00
2023-05-25T15:33:29.937Z,8.55
2023-05-25T15:36:04.917Z,5.45
2023-05-25T15:38:34.492Z,6.65
2023-05-25T15:41:02.529Z,9.43
2023-05-25T15:43:33.278Z,6.05
2023-05-25T15:46:04.764Z,6.80
2023-05-25T15:48:36.298Z,6.80
2023-05-25T15:51:04.816Z,6.47
2023-05-25T15:53:35.195Z,5.82
2023-05-25T15:56:12.993Z,8.95
2023-05-25T15:59:07.696Z,6.72
2023-05-25T16:01:39.169Z,10.25
2023-05-25T16:04:19.348Z,8.48
2023-05-25T16:06:50.037Z,8.02
2023-05-25T16:09:23.651Z,6.63
2023-05-25T16:11:53.692Z,8.60
2023-05-25T16:14:26.677Z,11.13
2023-05-25T16:16:55.361Z,16.92
2023-05-25T16:19:27.558Z,13.48
2023-05-25T16:21:56.256Z,12.30
2023-05-25T16:24:27.041Z,9.98
2023-05-25T16:26:59.290Z,9.57
2023-05-25T16:29:27.951Z,9.75
2023-05-25T16:31:59.995Z,8.30
2023-05-25T16:34:39.097Z,6.40
2023-05-25T16:37:07.359Z,6.05
2023-05-25T16:39:37.593Z,8.38
2023-05-25T16:42:07.217Z,8.75
2023-05-25T16:44:36.226Z,5.17
2023-05-25T16:47:04.559Z,7.57
2023-05-25T16:49:33.021Z,6.00
2023-05-25T16:52:05.589Z,6.15
2023-05-25T16:54:34.223Z,9.85
2023-05-25T16:57:05.073Z,8.48
2023-05-25T16:59:33.735Z,10.27
2023-05-25T17:02:02.072Z,8.13
2023-05-25T17:04:36.058Z,9.43
2023-05-25T17:07:04.922Z,11.05
2023-05-25T17:09:33.870Z,11.02
2023-05-25T17:12:03.908Z,10.63
2023-05-25T17:14:32.855Z,15.20
2023-05-25T17:17:01.101Z,15.07
2023-05-25T17:19:32.243Z,11.93
2023-05-25T17:22:01.032Z,12.05
2023-05-25T17:24:30.887Z,9.38
2023-05-25T17:27:03.390Z,8.80
2023-05-25T17:29:32.394Z,11.20
2023-05-25T17:32:03.385Z,12.23
2023-05-25T17:34:32.461Z,11.90
2023-05-25T17:37:04.399Z,10.57
2023-05-25T17:39:40.368Z,11.85
2023-05-25T17:42:09.443Z,7.28
2023-05-25T17:44:42.593Z,9.88
2023-05-25T17:47:11.609Z,9.05
2023-05-25T17:49:40.365Z,12.05
2023-05-25T17:52:11.246Z,11.57
2023-05-25T17:54:41.424Z,11.68
2023-05-25T17:57:10.080Z,11.95
2023-05-25T17:59:38.916Z,11.38
2023-05-25T18:02:07.687Z,9.57
2023-05-25T18:04:36.605Z,9.07
2023-05-25T18:07:05.559Z,9.57
2023-05-25T18:09:34.537Z,9.10
2023-05-25T18:12:03.661Z,12.93
2023-05-25T18:14:35.574Z,13.63
2023-05-25T18:17:04.347Z,11.13
2023-05-25T18:19:32.957Z,10.60
2023-05-25T18:22:01.672Z,9.20
2023-05-25T18:24:33.470Z,15.20
2023-05-25T18:27:05.018Z,11.80
2023-05-25T18:29:37.701Z,9.98
2023-05-25T18:32:09.019Z,17.95
2023-05-25T18:34:38.090Z,36.72
2023-05-25T18:37:06.843Z,18.67
2023-05-25T18:39:36.830Z,16.48
2023-05-25T18:42:06.108Z,18.65
2023-05-25T18:44:36.686Z,24.77
2023-05-25T18:47:06.166Z,16.45
2023-05-25T18:49:40.510Z,12.90
2023-05-25T18:52:13.670Z,11.63
2023-05-25T18:54:42.552Z,10.45
2023-05-25T18:57:11.486Z,14.40
2023-05-25T18:59:44.993Z,11.90
2023-05-25T19:02:13.915Z,13.63
2023-05-25T19:04:41.879Z,14.93
2023-05-25T19:07:09.612Z,15.57
2023-05-25T19:09:37.829Z,17.58
2023-05-25T19:12:09.715Z,15.27
2023-05-25T19:14:40.302Z,18.00
2023-05-25T19:17:11.659Z,17.65
2023-05-25T19:19:42.962Z,16.80
2023-05-25T19:22:11.163Z,17.35
2023-05-25T19:24:42.696Z,14.57
2023-05-25T19:27:12.513Z,13.27
2023-05-25T19:29:40.332Z,13.63
2023-05-25T19:32:08.721Z,17.20
2023-05-25T19:34:37.234Z,13.63
2023-05-25T19:37:11.524Z,12.32
2023-05-25T19:39:42.181Z,10.57
2023-05-25T19:42:11.669Z,21.05
2023-05-25T19:44:41.067Z,15.55
2023-05-25T19:47:09.104Z,16.67
2023-05-25T19:49:39.896Z,16.42
2023-05-25T19:52:07.752Z,16.05
2023-05-25T19:54:35.525Z,16.15
2023-05-25T19:57:04.182Z,13.57
2023-05-25T19:59:32.581Z,15.75
2023-05-25T20:02:01.692Z,25.25
2023-05-25T20:04:31.193Z,21.50
2023-05-25T20:07:00.467Z,19.73
2023-05-25T20:09:31.199Z,15.52
2023-05-25T20:12:00.143Z,137.65
2023-05-25T20:14:28.176Z,170.45
2023-05-25T20:16:56.193Z,134.85
2023-05-25T20:19:26.446Z,97.00
2023-05-25T20:21:54.351Z,64.00
2023-05-25T20:24:24.444Z,44.42
2023-05-25T20:26:57.024Z,30.08
2023-05-25T20:29:24.956Z,23.67
2023-05-25T20:31:56.399Z,19.67
2023-05-25T20:34:26.576Z,15.65
2023-05-25T20:36:54.312Z,11.13
2023-05-25T20:39:22.850Z,12.48
2023-05-25T20:41:52.131Z,12.25
2023-05-25T20:44:25.293Z,13.05
2023-05-25T20:46:56.646Z,12.48
2023-05-25T20:49:28.910Z,13.00
2023-05-25T20:52:01.136Z,14.95
2023-05-25T20:54:41.844Z,12.32
2023-05-25T20:57:09.815Z,12.32
2023-05-25T20:59:37.619Z,13.13
2023-05-25T21:02:06.211Z,11.80
2023-05-25T21:04:34.346Z,11.80
2023-05-25T21:07:02.199Z,14.40
2023-05-25T21:09:29.890Z,14.93
2023-05-25T21:11:57.650Z,13.98
2023-05-25T21:14:25.579Z,16.35
2023-05-25T21:16:53.379Z,16.83
2023-05-25T21:19:21.508Z,15.20
2023-05-25T21:21:49.424Z,19.95
2023-05-25T21:24:17.370Z,15.90
2023-05-25T21:26:45.336Z,14.40
2023-05-25T21:29:13.322Z,14.77
2023-05-25T21:31:41.139Z,12.13
2023-05-25T21:34:08.997Z,9.63
2023-05-25T21:36:36.987Z,13.30
2023-05-25T21:39:04.766Z,11.48
2023-05-25T21:41:32.609Z,11.18
2023-05-25T21:44:00.374Z,9.18
2023-05-25T21:46:28.445Z,12.88
2023-05-25T21:48:56.354Z,18.73
2023-05-25T21:51:24.143Z,14.45
2023-05-25T21:53:52.618Z,13.02
2023-05-25T21:56:21.025Z,15.48
2023-05-25T21:58:48.852Z,16.58
2023-05-25T22:01:16.802Z,16.75
2023-05-25T22:03:44.592Z,14.30
2023-05-25T22:06:12.405Z,20.30
2023-05-25T22:08:41.410Z,17.15
2023-05-25T22:11:09.669Z,17.27
2023-05-25T22:13:37.297Z,18.70
2023-05-25T22:16:05.235Z,16.00
2023-05-25T22:18:35.487Z,16.05
2023-05-25T22:21:04.879Z,16.27
2023-05-25T22:23:32.733Z,13.80
2023-05-25T22:26:00.639Z,13.45
2023-05-25T22:28:28.364Z,11.57
2023-05-25T22:30:56.401Z,12.60
2023-05-25T22:33:24.406Z,11.75
2023-05-25T22:35:54.083Z,13.93
2023-05-25T22:38:21.905Z,13.10
2023-05-25T22:40:49.777Z,13.60
2023-05-25T22:43:17.661Z,14.18
2023-05-25T22:45:45.529Z,10.02
2023-05-25T22:48:13.625Z,11.00
2023-05-25T22:50:41.384Z,11.70
2023-05-25T22:53:09.296Z,12.00
2023-05-25T22:55:37.147Z,10.73
2023-05-25T22:58:04.884Z,11.25
2023-05-25T23:00:33.053Z,11.55
2023-05-25T23:03:03.211Z,9.95
2023-05-25T23:05:31.999Z,10.18
2023-05-25T23:07:59.852Z,10.02
2023-05-25T23:10:27.565Z,10.20
2023-05-25T23:12:55.320Z,9.65
2023-05-25T23:15:23.005Z,10.88
2023-05-25T23:17:53.488Z,9.50
2023-05-25T23:20:21.420Z,9.90
2023-05-25T23:22:49.685Z,8.27
2023-05-25T23:25:17.552Z,8.13
2023-05-25T23:27:45.724Z,8.82
2023-05-25T23:30:13.656Z,7.97
2023-05-25T23:32:41.480Z,8.70
2023-05-25T23:35:09.678Z,7.78
2023-05-25T23:37:37.489Z,7.05
2023-05-25T23:40:05.592Z,7.97
2023-05-25T23:42:39.586Z,7.53
2023-05-25T23:45:08.635Z,7.57
2023-05-25T23:47:36.443Z,6.28
2023-05-25T23:50:04.417Z,6.85
2023-05-25T23:52:32.267Z,6.97
2023-05-25T23:55:00.177Z,7.50
2023-05-25T23:57:28.077Z,14.02
2023-05-25T23:59:55.868Z,7.63
